createdAt,value
2023-06-29T00:01:11.505Z,3.57
2023-06-29T00:03:43.258Z,3.63
2023-06-29T00:06:11.856Z,3.60
2023-06-29T00:08:44.267Z,3.40
2023-06-29T00:11:13.709Z,3.33
2023-06-29T00:13:42.671Z,3.50
2023-06-29T00:16:11.201Z,3.77
2023-06-29T00:18:39.903Z,3.87
2023-06-29T00:21:08.134Z,3.73
2023-06-29T00:23:36.355Z,3.67
2023-06-29T00:26:06.522Z,3.70
2023-06-29T00:28:34.888Z,3.97
2023-06-29T00:31:03.208Z,3.70
2023-06-29T00:33:31.855Z,3.67
2023-06-29T00:36:00.292Z,4.00
2023-06-29T00:38:28.518Z,3.60
2023-06-29T00:40:56.816Z,3.30
2023-06-29T00:43:26.513Z,3.53
2023-06-29T00:45:54.798Z,3.60
2023-06-29T00:48:23.314Z,3.67
2023-06-29T00:50:51.542Z,3.77
2023-06-29T00:53:19.751Z,3.90
2023-06-29T00:55:48.260Z,4.00
2023-06-29T00:58:16.816Z,3.73
2023-06-29T01:00:46.660Z,4.07
2023-06-29T01:03:15.225Z,3.60
2023-06-29T01:05:43.673Z,4.03
2023-06-29T01:08:16.042Z,3.83
2023-06-29T01:10:46.915Z,4.00
2023-06-29T01:13:18.141Z,4.23
2023-06-29T01:15:49.257Z,3.47
2023-06-29T01:18:18.695Z,4.00
2023-06-29T01:20:50.657Z,4.00
2023-06-29T01:23:26.072Z,4.63
2023-06-29T01:25:56.972Z,4.33
2023-06-29T01:28:25.799Z,4.37
2023-06-29T01:30:54.336Z,6.83
2023-06-29T01:33:25.540Z,4.77
2023-06-29T01:35:59.805Z,5.77
2023-06-29T01:38:32.816Z,4.03
2023-06-29T01:41:05.651Z,4.23
2023-06-29T01:43:36.116Z,3.73
2023-06-29T01:46:05.405Z,3.83
2023-06-29T01:48:34.973Z,3.70
2023-06-29T01:51:03.828Z,3.57
2023-06-29T01:53:32.986Z,4.10
2023-06-29T01:56:02.908Z,3.73
2023-06-29T01:58:31.498Z,4.20
2023-06-29T02:00:59.821Z,4.17
2023-06-29T02:03:28.276Z,3.73
2023-06-29T02:05:57.348Z,3.70
2023-06-29T02:08:25.700Z,4.13
2023-06-29T02:10:53.948Z,4.00
2023-06-29T02:13:23.682Z,4.70
2023-06-29T02:15:52.020Z,4.70
2023-06-29T02:18:20.283Z,4.50
2023-06-29T02:20:48.639Z,3.53
2023-06-29T02:23:16.971Z,4.00
2023-06-29T02:25:45.440Z,4.53
2023-06-29T02:28:14.076Z,3.63
2023-06-29T02:30:43.734Z,4.40
2023-06-29T02:33:12.026Z,4.17
2023-06-29T02:35:41.521Z,4.30
2023-06-29T02:38:09.968Z,4.17
2023-06-29T02:40:38.290Z,4.13
2023-06-29T02:43:06.600Z,4.20
2023-06-29T02:45:34.763Z,4.23
2023-06-29T02:48:04.455Z,4.17
2023-06-29T02:50:32.901Z,4.20
2023-06-29T02:53:01.149Z,4.07
2023-06-29T02:55:32.293Z,4.23
2023-06-29T02:58:00.785Z,4.10
2023-06-29T03:00:29.146Z,4.30
2023-06-29T03:02:57.430Z,4.10
2023-06-29T03:05:27.134Z,4.27
2023-06-29T03:07:55.381Z,4.77
2023-06-29T03:10:23.635Z,4.57
2023-06-29T03:12:52.100Z,4.40
2023-06-29T03:15:20.286Z,4.57
2023-06-29T03:17:48.647Z,4.57
2023-06-29T03:20:16.972Z,5.00
2023-06-29T03:22:46.597Z,4.80
2023-06-29T03:25:14.892Z,5.00
2023-06-29T03:27:43.154Z,5.63
2023-06-29T03:30:12.130Z,4.90
2023-06-29T03:32:40.426Z,5.73
2023-06-29T03:35:09.606Z,5.37
2023-06-29T03:37:37.818Z,4.40
2023-06-29T03:40:09.148Z,5.20
2023-06-29T03:42:37.406Z,5.60
2023-06-29T03:45:06.263Z,5.27
2023-06-29T03:47:34.609Z,4.90
2023-06-29T03:50:03.101Z,5.30
2023-06-29T03:52:31.311Z,5.03
2023-06-29T03:54:59.563Z,5.47
2023-06-29T03:57:29.273Z,4.80
2023-06-29T03:59:57.431Z,4.90
2023-06-29T04:02:26.061Z,4.87
2023-06-29T04:04:54.564Z,5.13
2023-06-29T04:07:22.841Z,4.97
2023-06-29T04:09:51.101Z,5.17
2023-06-29T04:12:19.393Z,5.20
2023-06-29T04:14:48.949Z,4.80
2023-06-29T04:17:17.075Z,4.73
2023-06-29T04:19:45.407Z,5.07
2023-06-29T04:22:13.551Z,5.10
2023-06-29T04:24:41.720Z,4.67
2023-06-29T04:27:10.298Z,4.47
2023-06-29T04:29:38.632Z,4.67
2023-06-29T04:32:08.640Z,4.97
2023-06-29T04:34:36.909Z,4.77
2023-06-29T04:37:05.921Z,5.43
2023-06-29T04:39:34.119Z,4.60
2023-06-29T04:42:06.348Z,4.60
2023-06-29T04:44:34.821Z,4.73
2023-06-29T04:47:03.961Z,4.70
2023-06-29T04:49:38.228Z,4.63
2023-06-29T04:52:11.217Z,4.73
2023-06-29T04:54:39.646Z,4.90
2023-06-29T04:57:08.153Z,4.87
2023-06-29T04:59:36.646Z,4.77
2023-06-29T05:02:05.143Z,4.90
2023-06-29T05:04:34.940Z,4.80
2023-06-29T05:07:03.278Z,4.20
2023-06-29T05:09:31.401Z,4.40
2023-06-29T05:11:59.639Z,4.90
2023-06-29T05:14:28.085Z,4.57
2023-06-29T05:16:58.307Z,4.90
2023-06-29T05:19:26.631Z,4.30
2023-06-29T05:21:56.566Z,4.13
2023-06-29T05:24:24.737Z,4.33
2023-06-29T05:26:52.987Z,4.60
2023-06-29T05:29:21.305Z,4.03
2023-06-29T05:31:49.574Z,4.70
2023-06-29T05:34:18.024Z,4.70
2023-06-29T05:36:46.366Z,4.10
2023-06-29T05:39:16.088Z,4.10
2023-06-29T05:41:44.410Z,4.40
2023-06-29T05:44:12.692Z,4.20
2023-06-29T05:46:41.207Z,4.00
2023-06-29T05:49:09.316Z,3.80
2023-06-29T05:51:38.606Z,4.13
2023-06-29T05:54:07.060Z,3.57
2023-06-29T05:56:36.688Z,3.73
2023-06-29T05:59:05.185Z,4.07
2023-06-29T06:01:33.519Z,4.30
2023-06-29T06:04:01.815Z,3.60
2023-06-29T06:06:32.053Z,3.58
2023-06-29T06:09:00.543Z,4.15
2023-06-29T06:11:28.903Z,3.67
2023-06-29T06:13:58.502Z,3.60
2023-06-29T06:16:26.735Z,3.58
2023-06-29T06:18:55.059Z,3.78
2023-06-29T06:21:25.097Z,3.38
2023-06-29T06:23:53.840Z,3.45
2023-06-29T06:26:21.978Z,3.25
2023-06-29T06:28:52.150Z,3.67
2023-06-29T06:31:33.533Z,3.53
2023-06-29T06:34:03.955Z,3.42
2023-06-29T06:36:32.875Z,3.30
2023-06-29T06:39:01.207Z,3.70
2023-06-29T06:41:29.540Z,3.28
2023-06-29T06:43:58.313Z,3.38
2023-06-29T06:46:28.088Z,2.80
2023-06-29T06:48:56.720Z,3.00
2023-06-29T06:51:26.323Z,3.33
2023-06-29T06:53:54.444Z,3.20
2023-06-29T06:56:23.911Z,3.20
2023-06-29T06:58:52.324Z,3.47
2023-06-29T07:01:23.288Z,3.60
2023-06-29T07:03:53.675Z,3.03
2023-06-29T07:06:21.839Z,3.67
2023-06-29T07:08:50.180Z,2.88
2023-06-29T07:11:18.715Z,3.13
2023-06-29T07:13:46.961Z,3.50
2023-06-29T07:16:15.274Z,3.60
2023-06-29T07:21:38.178Z,3.25
2023-06-29T07:24:08.410Z,3.33
2023-06-29T07:26:37.143Z,3.28
2023-06-29T07:29:06.320Z,3.35
2023-06-29T07:31:35.066Z,2.70
2023-06-29T07:34:04.829Z,3.53
2023-06-29T07:36:33.072Z,3.30
2023-06-29T07:39:01.460Z,2.97
2023-06-29T07:41:29.716Z,3.42
2023-06-29T07:43:58.734Z,3.22
2023-06-29T07:46:27.026Z,3.20
2023-06-29T07:48:56.270Z,3.60
2023-06-29T07:51:26.026Z,3.47
2023-06-29T07:53:54.292Z,3.20
2023-06-29T07:56:22.877Z,3.05
2023-06-29T07:58:53.532Z,3.30
2023-06-29T08:01:22.062Z,3.30
2023-06-29T08:04:00.247Z,3.50
2023-06-29T08:09:05.436Z,3.38
2023-06-29T08:11:33.972Z,3.30
2023-06-29T08:14:02.232Z,3.40
2023-06-29T08:16:30.541Z,3.10
2023-06-29T08:18:59.112Z,3.30
2023-06-29T08:21:27.602Z,3.20
2023-06-29T08:23:57.198Z,3.05
2023-06-29T08:26:26.254Z,2.60
2023-06-29T08:28:54.591Z,3.10
2023-06-29T08:31:22.860Z,2.72
2023-06-29T08:33:51.227Z,3.35
2023-06-29T08:36:19.523Z,2.72
2023-06-29T08:38:50.085Z,2.85
2023-06-29T08:41:20.103Z,3.00
2023-06-29T08:43:48.374Z,2.92
2023-06-29T08:46:16.836Z,3.00
2023-06-29T08:48:47.216Z,2.65
2023-06-29T08:51:19.752Z,2.90
2023-06-29T08:53:49.771Z,3.13
2023-06-29T08:56:19.565Z,3.00
2023-06-29T08:58:48.683Z,3.00
2023-06-29T09:01:17.089Z,3.10
2023-06-29T09:03:45.736Z,2.85
2023-06-29T09:06:15.738Z,2.97
2023-06-29T09:08:44.138Z,2.88
2023-06-29T09:11:12.820Z,2.70
2023-06-29T09:13:43.196Z,3.25
2023-06-29T09:16:11.929Z,2.90
2023-06-29T09:18:40.213Z,2.80
2023-06-29T09:21:09.496Z,2.65
2023-06-29T09:23:45.106Z,3.10
2023-06-29T09:26:13.540Z,3.00
2023-06-29T09:28:47.767Z,2.60
2023-06-29T09:31:16.126Z,3.20
2023-06-29T09:33:44.449Z,3.30
2023-06-29T09:36:13.410Z,3.03
2023-06-29T09:38:41.622Z,3.05
2023-06-29T09:41:09.931Z,2.90
2023-06-29T09:43:38.779Z,3.50
2023-06-29T09:46:09.598Z,3.20
2023-06-29T09:51:22.925Z,3.35
2023-06-29T09:53:51.598Z,3.10
2023-06-29T09:56:20.458Z,3.70
2023-06-29T09:58:49.863Z,2.80
2023-06-29T10:01:20.438Z,3.22
2023-06-29T10:03:48.714Z,3.30
2023-06-29T10:06:21.449Z,3.38
2023-06-29T10:08:52.768Z,2.97
2023-06-29T10:11:22.410Z,3.05
2023-06-29T10:13:52.034Z,2.75
2023-06-29T10:16:24.682Z,2.88
2023-06-29T10:18:58.224Z,2.70
2023-06-29T10:21:26.731Z,3.08
2023-06-29T10:23:57.823Z,3.00
2023-06-29T10:26:27.148Z,2.80
2023-06-29T10:28:55.473Z,2.95
2023-06-29T10:31:34.106Z,3.22
2023-06-29T10:34:02.839Z,2.95
2023-06-29T10:36:47.066Z,3.00
2023-06-29T10:39:46.000Z,2.85
2023-06-29T10:42:34.608Z,2.35
2023-06-29T10:45:04.059Z,2.97
2023-06-29T10:47:38.541Z,3.05
2023-06-29T10:50:20.295Z,2.90
2023-06-29T10:52:50.813Z,3.08
2023-06-29T10:55:20.335Z,2.85
2023-06-29T10:57:49.272Z,3.20
2023-06-29T11:00:18.135Z,2.92
2023-06-29T11:02:50.399Z,3.00
2023-06-29T11:05:20.072Z,2.50
2023-06-29T11:07:51.553Z,2.85
2023-06-29T11:10:21.117Z,2.80
2023-06-29T11:12:52.629Z,2.88
2023-06-29T11:15:21.582Z,2.83
2023-06-29T11:17:53.699Z,2.78
2023-06-29T11:20:23.146Z,3.28
2023-06-29T11:22:52.715Z,2.80
2023-06-29T11:25:21.151Z,2.65
2023-06-29T11:27:50.924Z,2.38
2023-06-29T11:30:21.519Z,2.67
2023-06-29T11:32:54.060Z,2.20
2023-06-29T11:35:23.862Z,2.65
2023-06-29T11:37:53.151Z,2.70
2023-06-29T11:40:23.034Z,2.33
2023-06-29T11:42:52.034Z,2.28
2023-06-29T11:45:22.021Z,2.40
2023-06-29T11:47:57.546Z,2.00
2023-06-29T11:50:26.118Z,2.58
2023-06-29T11:52:54.870Z,2.33
2023-06-29T11:55:24.000Z,2.10
2023-06-29T11:57:54.986Z,1.98
2023-06-29T12:00:32.566Z,2.15
2023-06-29T12:03:10.226Z,2.30
2023-06-29T12:05:43.770Z,2.40
2023-06-29T12:08:12.764Z,2.40
2023-06-29T12:10:41.599Z,2.00
2023-06-29T12:13:12.389Z,2.53
2023-06-29T12:18:18.346Z,2.42
2023-06-29T12:20:49.000Z,2.13
2023-06-29T12:23:17.812Z,2.08
2023-06-29T12:25:48.721Z,2.30
2023-06-29T12:28:17.783Z,1.90
2023-06-29T12:30:46.352Z,1.75
2023-06-29T12:33:15.576Z,2.00
2023-06-29T12:35:45.518Z,2.25
2023-06-29T12:38:14.168Z,2.30
2023-06-29T12:40:42.453Z,2.00
2023-06-29T12:43:10.744Z,2.10
2023-06-29T12:45:38.959Z,2.10
2023-06-29T12:48:07.840Z,2.05
2023-06-29T12:50:36.131Z,1.95
2023-06-29T12:53:05.836Z,2.30
2023-06-29T12:55:34.006Z,2.20
2023-06-29T12:58:02.344Z,2.15
2023-06-29T13:00:30.770Z,1.92
2023-06-29T13:03:00.318Z,1.85
2023-06-29T13:05:28.636Z,1.80
2023-06-29T13:07:57.319Z,2.17
2023-06-29T13:10:27.010Z,2.03
2023-06-29T13:12:55.178Z,2.50
2023-06-29T13:15:23.806Z,2.10
2023-06-29T13:17:52.943Z,1.85
2023-06-29T13:20:21.621Z,1.90
2023-06-29T13:22:50.124Z,2.20
2023-06-29T13:25:18.425Z,2.25
2023-06-29T13:27:48.196Z,1.92
2023-06-29T13:30:16.926Z,2.10
2023-06-29T13:32:45.117Z,2.15
2023-06-29T13:35:13.432Z,2.33
2023-06-29T13:37:41.823Z,1.90
2023-06-29T13:40:11.207Z,2.08
2023-06-29T13:42:39.387Z,2.40
2023-06-29T13:45:10.454Z,1.90
2023-06-29T13:47:41.555Z,1.98
2023-06-29T13:50:10.563Z,1.73
2023-06-29T13:52:38.831Z,2.10
2023-06-29T13:55:07.632Z,1.90
2023-06-29T13:57:35.944Z,2.15
2023-06-29T14:00:04.318Z,1.88
2023-06-29T14:02:34.044Z,2.30
2023-06-29T14:05:02.251Z,2.00
2023-06-29T14:07:30.652Z,2.70
2023-06-29T14:09:58.928Z,2.25
2023-06-29T14:12:27.102Z,2.20
2023-06-29T14:14:55.375Z,2.45
2023-06-29T14:17:23.888Z,1.98
2023-06-29T14:19:54.471Z,2.25
2023-06-29T14:22:22.957Z,2.25
2023-06-29T14:24:51.146Z,2.10
2023-06-29T14:27:20.067Z,2.30
2023-06-29T14:29:48.383Z,2.00
2023-06-29T14:32:16.627Z,2.70
2023-06-29T14:34:49.105Z,2.10
2023-06-29T14:37:19.324Z,2.20
2023-06-29T14:39:47.638Z,2.53
2023-06-29T14:42:15.861Z,1.98
2023-06-29T14:44:45.107Z,2.33
2023-06-29T14:47:13.782Z,1.80
2023-06-29T14:49:42.218Z,2.03
2023-06-29T14:52:10.514Z,1.83
2023-06-29T14:54:40.273Z,2.33
2023-06-29T14:57:08.891Z,2.10
2023-06-29T14:59:37.200Z,2.15
2023-06-29T15:02:06.200Z,2.00
2023-06-29T15:04:34.429Z,1.95
2023-06-29T15:07:02.745Z,1.95
2023-06-29T15:09:31.435Z,2.10
2023-06-29T15:12:03.217Z,2.38
2023-06-29T15:14:31.941Z,2.08
2023-06-29T15:17:01.136Z,1.83
2023-06-29T15:19:30.322Z,2.17
2023-06-29T15:21:59.356Z,2.10
2023-06-29T15:24:27.757Z,1.90
2023-06-29T15:26:56.189Z,1.85
2023-06-29T15:29:26.446Z,2.08
2023-06-29T15:31:54.971Z,1.90
2023-06-29T15:34:23.264Z,2.10
2023-06-29T15:36:51.731Z,1.90
2023-06-29T15:39:19.933Z,2.13
2023-06-29T15:41:50.996Z,1.73
2023-06-29T15:44:19.977Z,2.13
2023-06-29T15:46:55.515Z,3.30
2023-06-29T15:49:24.318Z,5.40
2023-06-29T15:51:52.574Z,7.63
2023-06-29T15:54:20.945Z,6.07
2023-06-29T15:56:49.314Z,4.65
2023-06-29T15:59:18.820Z,5.05
2023-06-29T16:01:47.169Z,6.72
2023-06-29T16:04:19.197Z,4.68
2023-06-29T16:06:48.235Z,4.07
2023-06-29T16:09:16.598Z,3.72
2023-06-29T16:11:44.832Z,4.43
2023-06-29T16:14:13.076Z,4.78
2023-06-29T16:16:41.492Z,4.70
2023-06-29T16:19:10.889Z,4.32
2023-06-29T16:21:40.574Z,3.95
2023-06-29T16:24:09.067Z,3.15
2023-06-29T16:26:37.416Z,3.28
2023-06-29T16:29:06.921Z,2.70
2023-06-29T16:31:35.828Z,2.70
2023-06-29T16:34:04.376Z,2.50
2023-06-29T16:36:33.424Z,2.90
2023-06-29T16:39:03.171Z,2.58
2023-06-29T16:41:31.498Z,2.58
2023-06-29T16:43:59.773Z,2.60
2023-06-29T16:46:28.069Z,2.60
2023-06-29T16:48:58.024Z,3.10
2023-06-29T16:51:26.261Z,2.75
2023-06-29T16:53:54.523Z,2.85
2023-06-29T16:56:24.220Z,2.70
2023-06-29T16:58:52.435Z,2.65
2023-06-29T17:01:20.862Z,2.65
2023-06-29T17:03:49.272Z,2.80
2023-06-29T17:06:17.842Z,2.60
2023-06-29T17:08:46.535Z,2.67
2023-06-29T17:11:15.397Z,3.38
2023-06-29T17:13:45.763Z,2.78
2023-06-29T17:16:14.129Z,2.80
2023-06-29T17:18:42.583Z,2.75
2023-06-29T17:21:10.910Z,2.72
2023-06-29T17:23:39.314Z,2.78
2023-06-29T17:26:07.773Z,2.83
2023-06-29T17:28:36.119Z,2.83
2023-06-29T17:31:05.989Z,2.90
2023-06-29T17:33:49.448Z,2.47
2023-06-29T17:36:22.636Z,2.67
2023-06-29T17:38:51.105Z,2.83
2023-06-29T17:41:19.436Z,2.50
2023-06-29T17:43:47.805Z,3.13
2023-06-29T17:46:17.620Z,2.70
2023-06-29T17:48:46.354Z,2.92
2023-06-29T17:51:15.394Z,2.85
2023-06-29T17:53:45.309Z,2.75
2023-06-29T17:56:15.529Z,2.25
2023-06-29T17:58:44.975Z,2.78
2023-06-29T18:01:13.253Z,2.45
2023-06-29T18:03:43.346Z,2.40
2023-06-29T18:06:12.973Z,2.58
2023-06-29T18:08:41.624Z,2.28
2023-06-29T18:11:10.719Z,1.92
2023-06-29T18:13:39.263Z,1.88
2023-06-29T18:16:07.579Z,1.75
2023-06-29T18:18:35.904Z,1.52
2023-06-29T18:21:05.641Z,1.48
2023-06-29T18:23:33.876Z,1.42
2023-06-29T18:26:02.696Z,1.40
2023-06-29T18:28:31.108Z,1.25
2023-06-29T18:30:59.398Z,1.35
2023-06-29T18:33:27.840Z,1.40
2023-06-29T18:35:56.177Z,1.40
2023-06-29T18:38:25.907Z,1.25
2023-06-29T18:40:54.360Z,1.70
2023-06-29T18:43:22.677Z,1.30
2023-06-29T18:45:50.967Z,1.40
2023-06-29T18:48:19.408Z,1.50
2023-06-29T18:50:47.550Z,1.38
2023-06-29T18:53:15.811Z,1.55
2023-06-29T18:55:45.819Z,1.30
2023-06-29T18:58:14.313Z,1.17
2023-06-29T19:00:42.563Z,1.73
2023-06-29T19:03:11.008Z,1.55
2023-06-29T19:05:39.596Z,1.25
2023-06-29T19:08:07.807Z,1.50
2023-06-29T19:10:36.051Z,1.15
2023-06-29T19:13:05.640Z,1.30
2023-06-29T19:15:33.836Z,1.40
2023-06-29T19:18:02.324Z,1.58
2023-06-29T19:20:30.665Z,1.60
2023-06-29T19:22:58.840Z,1.52
2023-06-29T19:25:27.182Z,1.52
2023-06-29T19:27:55.389Z,1.40
2023-06-29T19:30:25.006Z,1.50
2023-06-29T19:32:53.312Z,1.42
2023-06-29T19:35:21.778Z,1.40
2023-06-29T19:37:50.114Z,1.50
2023-06-29T19:40:18.640Z,1.45
2023-06-29T19:42:46.915Z,1.23
2023-06-29T19:45:15.202Z,1.38
2023-06-29T19:47:45.161Z,1.48
2023-06-29T19:50:13.460Z,1.30
2023-06-29T19:52:41.823Z,1.30
2023-06-29T19:55:11.249Z,1.20
2023-06-29T19:57:39.663Z,1.27
2023-06-29T20:00:09.356Z,1.70
2023-06-29T20:02:37.739Z,1.33
2023-06-29T20:05:08.060Z,1.45
2023-06-29T20:07:38.183Z,1.70
2023-06-29T20:10:07.677Z,1.38
2023-06-29T20:12:35.860Z,1.20
2023-06-29T20:15:05.230Z,1.17
2023-06-29T20:17:34.942Z,1.55
2023-06-29T20:20:03.843Z,1.65
2023-06-29T20:22:33.521Z,1.63
2023-06-29T20:25:01.868Z,1.50
2023-06-29T20:27:29.982Z,1.30
2023-06-29T20:29:58.254Z,1.30
2023-06-29T20:32:26.842Z,1.55
2023-06-29T20:34:55.125Z,1.50
2023-06-29T20:37:23.444Z,1.70
2023-06-29T20:39:53.078Z,1.52
2023-06-29T20:42:21.331Z,1.73
2023-06-29T20:44:52.064Z,1.50
2023-06-29T20:47:21.976Z,1.60
2023-06-29T20:49:50.204Z,1.52
2023-06-29T20:52:18.654Z,1.50
2023-06-29T20:54:46.875Z,1.35
2023-06-29T20:57:22.251Z,1.25
2023-06-29T20:59:50.818Z,1.38
2023-06-29T21:02:19.562Z,1.30
2023-06-29T21:04:48.166Z,1.50
2023-06-29T21:07:16.700Z,1.45
2023-06-29T21:09:45.024Z,1.40
2023-06-29T21:12:14.508Z,1.63
2023-06-29T21:14:44.709Z,1.33
2023-06-29T21:17:13.569Z,1.70
2023-06-29T21:19:42.514Z,1.40
2023-06-29T21:22:13.248Z,1.50
2023-06-29T21:24:43.244Z,1.52
2023-06-29T21:27:13.943Z,1.60
2023-06-29T21:29:47.161Z,1.50
2023-06-29T21:32:16.990Z,1.80
2023-06-29T21:34:45.644Z,1.73
2023-06-29T21:37:14.683Z,1.70
2023-06-29T21:39:43.520Z,1.83
2023-06-29T21:42:11.885Z,1.70
2023-06-29T21:44:40.224Z,2.57
2023-06-29T21:47:10.105Z,1.60
2023-06-29T21:49:39.171Z,1.77
2023-06-29T21:52:08.432Z,2.00
2023-06-29T21:54:36.705Z,1.57
2023-06-29T21:57:05.610Z,1.40
2023-06-29T21:59:34.006Z,1.73
2023-06-29T22:02:02.612Z,2.03
2023-06-29T22:04:32.324Z,1.80
2023-06-29T22:07:06.739Z,1.67
2023-06-29T22:09:40.142Z,1.70
2023-06-29T22:12:11.558Z,1.60
2023-06-29T22:14:39.908Z,1.87
2023-06-29T22:17:08.497Z,1.70
2023-06-29T22:19:39.320Z,1.97
2023-06-29T22:22:08.765Z,1.73
2023-06-29T22:24:37.195Z,1.70
2023-06-29T22:27:06.162Z,2.00
2023-06-29T22:29:34.492Z,2.07
2023-06-29T22:32:02.813Z,1.90
2023-06-29T22:34:31.133Z,1.73
2023-06-29T22:37:01.033Z,2.07
2023-06-29T22:39:29.318Z,1.73
2023-06-29T22:41:57.667Z,2.20
2023-06-29T22:44:26.098Z,2.23
2023-06-29T22:46:54.639Z,2.10
2023-06-29T22:49:22.867Z,2.27
2023-06-29T22:51:51.135Z,1.87
2023-06-29T22:54:20.948Z,1.90
2023-06-29T22:56:49.724Z,2.00
2023-06-29T22:59:17.958Z,1.87
2023-06-29T23:01:46.365Z,2.17
2023-06-29T23:04:14.833Z,2.00
2023-06-29T23:06:45.322Z,2.23
2023-06-29T23:09:13.691Z,2.10
2023-06-29T23:11:43.359Z,2.20
2023-06-29T23:14:15.237Z,1.87
2023-06-29T23:16:44.762Z,2.03
2023-06-29T23:19:13.141Z,2.27
2023-06-29T23:21:41.485Z,2.20
2023-06-29T23:24:14.922Z,1.93
2023-06-29T23:26:46.587Z,2.30
2023-06-29T23:29:15.380Z,2.13
2023-06-29T23:31:43.902Z,2.23
2023-06-29T23:34:12.213Z,2.40
2023-06-29T23:36:41.102Z,2.10
2023-06-29T23:39:13.923Z,2.10
2023-06-29T23:41:44.103Z,1.93
2023-06-29T23:44:12.356Z,1.83
2023-06-29T23:46:45.407Z,1.90
2023-06-29T23:49:15.405Z,2.10
2023-06-29T23:51:44.898Z,2.43
2023-06-29T23:54:13.930Z,2.30
2023-06-29T23:56:42.886Z,2.33
2023-06-29T23:59:12.868Z,2.37
